Terminal Aerodrome Forecast
Issued by NWS

Home | Current Version | Previous Version | Text Only | Print | Product List | Glossary On
Versions: 1 2 3 4 5 6 7 8 9 10 11 12
000
FTUS46 KOTX 310529
TAFSFF
TAF
KSFF 310529Z 3106/0106 VRB02KT P6SM SKC
     FM311200 VRB02KT P6SM FEW250
     FM311800 18005KT P6SM FEW100 FEW150
     FM010000 23007KT P6SM SKC=

USA.gov is the U.S. government's official web portal to all federal, state and local government web resources and services.